EmailTwitter


Surface observations / United Kingdom / EGHI (03865)

Regions: Quebec | Canada | USA | Europe | France | UK | Elsewhere
Station
Display
Info & Location for EGHI (03865) | Help decoding METAR

Weather Conditions observed on 2018/04/26 at 05:20 UTC at SOUTHAMPTON WX C, UK (EGHI)

Sky conditions: few clouds.

Temperature: 6.0 Celsius.

Dewpoint: 4.0 Celsius.

Relative Humidity: 87%

Winds: West-southwest at 7 km/h or 4 knots.

Mean Sea level Pressure: 101.70 kilopascals.

Horizontal visibility: 6.21 statute miles or 9.94 kilometers.

Coded METAR:

EGHI 260520Z 25004KT 9999 FEW022 06/04 Q1017=